Time;durP1;ratioP1;P1;durP2;ratioP2;P2;SDS_P1;SDS_P2;PMS_P1;PMS_P2;Temp;Humidity;BMP_temperature;BMP_pressure;BME280_temperature;BME280_humidity;BME280_pressure;Samples;Min_cycle;Max_cycle;Signal;HPM_P1;HPM_P2
2023/04/28 00:00:53;;;;;;;0.20;0.20;;;7.00;99.90;;;;;;6188765;23;20115;-80
2023/04/28 00:03:19;;;;;;;0.17;0.17;;;6.30;99.90;;;;;;6186573;23;20051;-79
2023/04/28 00:05:45;;;;;;;0.10;0.10;;;6.30;99.90;;;;;;6186273;23;20013;-80
2023/04/28 00:08:11;;;;;;;0.20;0.20;;;6.20;99.90;;;;;;6213394;23;20397;-80
2023/04/28 00:10:40;;;;;;;0.20;0.20;;;6.20;99.90;;;;;;6187017;23;20036;-80
2023/04/28 00:13:23;;;;;;;0.20;0.20;;;6.20;99.90;;;;;;6185902;23;20020;-80
2023/04/28 00:16:17;;;;;;;0.20;0.20;;;6.20;99.90;;;;;;6211846;23;20023;-80
2023/04/28 00:18:43;;;;;;;0.20;0.20;;;7.90;99.90;;;;;;6213876;23;20023;-80
2023/04/28 00:21:08;;;;;;;0.17;0.17;;;6.10;99.90;;;;;;6210856;23;20095;-80
2023/04/28 00:23:40;;;;;;;0.10;0.10;;;6.70;99.90;;;;;;6187278;23;20017;-80
2023/04/28 00:26:23;;;;;;;0.20;0.20;;;6.30;99.90;;;;;;6090752;23;20090;-80
2023/04/28 00:28:49;;;;;;;0.20;0.20;;;8.00;99.90;;;;;;6068052;23;20477;-80
2023/04/28 00:32:20;;;;;;;0.20;0.20;;;6.10;99.90;;;;;;6248578;22;20019;-81
2023/04/28 00:34:46;;;;;;;0.20;0.20;;;6.80;99.90;;;;;;6278162;22;20254;-81
2023/04/28 00:40:03;;;;;;;0.20;0.20;;;6.00;99.90;;;;;;6300114;22;20423;-80
2023/04/28 00:43:13;;;;;;;0.20;0.20;;;5.90;99.90;;;;;;6276897;22;20094;-80
2023/04/28 00:45:39;;;;;;;0.20;0.20;;;5.20;99.90;;;;;;6124210;23;20142;-80
2023/04/28 00:48:05;;;;;;;0.20;0.20;;;4.60;99.90;;;;;;6125730;23;20010;-80
2023/04/28 00:50:30;;;;;;;0.20;0.20;;;6.20;99.90;;;;;;6125967;23;20022;-80
2023/04/28 00:56:30;;;;;;;0.20;0.20;;;6.00;99.90;;;;;;6243806;22;20035;-79
2023/04/28 01:02:21;;;;;;;0.20;0.20;;;;;;;;;;6244123;23;20272;-80
2023/04/28 01:04:54;;;;;;;0.20;0.20;;;6.40;99.90;;;;;;6218240;23;20023;-80
2023/04/28 01:07:24;;;;;;;0.20;0.20;;;;;;;;;;6245541;23;20574;-80
2023/04/28 01:10:44;;;;;;;0.20;0.20;;;6.00;99.90;;;;;;6242294;22;20249;-80
2023/04/28 01:13:39;;;;;;;0.20;0.20;;;6.70;99.90;;;;;;6279541;22;20085;-79
2023/04/28 01:16:08;;;;;;;0.20;0.20;;;;;;;;;;6304360;22;20436;-80
2023/04/28 01:18:58;;;;;;;0.20;0.20;;;5.70;99.90;;;;;;6152194;23;20016;-79
2023/04/28 01:21:42;;;;;;;0.20;0.20;;;6.30;99.90;;;;;;6277833;22;20019;-79
2023/04/28 01:24:08;;;;;;;0.20;0.20;;;5.90;99.90;;;;;;6309029;22;20094;-78
2023/04/28 01:26:37;;;;;;;0.20;0.20;;;5.40;99.90;;;;;;6299744;22;20015;-80
2023/04/28 01:29:02;;;;;;;0.20;0.20;;;5.70;99.90;;;;;;6312318;22;20026;-80
2023/04/28 01:31:31;;;;;;;0.20;0.20;;;5.40;99.90;;;;;;6301684;22;20019;-80
2023/04/28 01:33:57;;;;;;;0.20;0.20;;;6.30;99.90;;;;;;6276745;22;20015;-80
2023/04/28 01:39:57;;;;;;;0.20;0.20;;;5.60;99.90;;;;;;6304783;22;20023;-79
2023/04/28 01:42:23;;;;;;;0.20;0.20;;;5.60;99.90;;;;;;6304456;22;20015;-80
2023/04/28 01:44:58;;;;;;;0.20;0.20;;;5.70;99.90;;;;;;6299956;22;20239;-79
2023/04/28 01:47:39;;;;;;;0.20;0.20;;;5.60;99.90;;;;;;6277782;22;20517;-79
2023/04/28 01:50:05;;;;;;;0.20;0.20;;;5.60;99.90;;;;;;6277000;22;20095;-80
2023/04/28 01:52:31;;;;;;;0.20;0.20;;;5.60;99.90;;;;;;6303891;22;20374;-80
2023/04/28 01:55:11;;;;;;;0.20;0.20;;;5.90;99.90;;;;;;6297766;22;20031;-81
2023/04/28 01:57:44;;;;;;;0.30;0.30;;;5.50;99.90;;;;;;6234833;22;20032;-80
2023/04/28 02:04:00;;;;;;;0.20;0.20;;;6.10;99.90;;;;;;6179624;23;20067;-80
2023/04/28 02:06:29;;;;;;;0.20;0.20;;;5.50;99.90;;;;;;6153147;23;20020;-81
2023/04/28 02:08:57;;;;;;;0.10;0.10;;;5.10;99.90;;;;;;6154484;23;20343;-79
2023/04/28 02:11:25;;;;;;;0.20;0.20;;;5.50;99.90;;;;;;6154235;23;20009;-81
2023/04/28 02:13:51;;;;;;;0.15;0.15;;;6.30;99.90;;;;;;6180109;23;20017;-81
2023/04/28 02:16:32;;;;;;;0.20;0.20;;;5.70;99.90;;;;;;6178706;23;20021;-81
2023/04/28 02:19:07;;;;;;;0.20;0.20;;;5.60;99.90;;;;;;6179902;23;20009;-80
2023/04/28 02:21:48;;;;;;;0.15;0.15;;;6.10;99.90;;;;;;6155505;23;20055;-81
2023/04/28 02:24:23;;;;;;;0.20;0.20;;;5.50;99.90;;;;;;6154695;23;20044;-80
2023/04/28 02:26:48;;;;;;;0.20;0.20;;;6.00;99.90;;;;;;6188382;23;20073;-81
2023/04/28 02:29:33;;;;;;;0.20;0.20;;;5.60;99.90;;;;;;6215520;23;20020;-81
2023/04/28 02:32:58;;;;;;;0.20;0.20;;;5.80;99.90;;;;;;6242830;22;20130;-81
2023/04/28 02:36:15;;;;;;;0.20;0.20;;;4.60;99.90;;;;;;6215827;23;20388;-80
2023/04/28 02:38:41;;;;;;;0.17;0.17;;;5.70;99.90;;;;;;6216538;23;20028;-80
2023/04/28 02:41:47;;;;;;;0.20;0.20;;;5.60;99.90;;;;;;6242091;23;20008;-80
2023/04/28 02:44:42;;;;;;;0.20;0.20;;;4.50;99.90;;;;;;6215123;23;20085;-80
2023/04/28 02:47:08;;;;;;;0.20;0.20;;;6.00;99.90;;;;;;6258635;22;20016;-80
2023/04/28 02:49:33;;;;;;;0.20;0.20;;;6.50;99.90;;;;;;6247043;22;20020;-80
2023/04/28 02:52:00;;;;;;;0.20;0.20;;;6.40;99.90;;;;;;6245744;22;20440;-80
2023/04/28 02:57:36;;;;;;;0.20;0.20;;;5.70;99.90;;;;;;6216861;22;20025;-82
2023/04/28 03:00:01;;;;;;;0.20;0.20;;;5.50;99.90;;;;;;6211115;23;20099;-80
2023/04/28 03:02:33;;;;;;;0.20;0.20;;;5.70;99.90;;;;;;6213330;23;20127;-81
2023/04/28 03:04:58;;;;;;;;;;;5.60;99.90;;;;;;6213855;23;20012;-80
2023/04/28 03:07:24;;;;;;;0.20;0.20;;;5.70;99.90;;;;;;6212839;23;20371;-80
2023/04/28 03:09:50;;;;;;;0.20;0.20;;;5.70;99.90;;;;;;6233810;23;20027;-81
2023/04/28 03:12:18;;;;;;;0.20;0.20;;;5.70;99.90;;;;;;6223066;23;20020;-81
2023/04/28 03:18:16;;;;;;;0.20;0.20;;;5.70;99.90;;;;;;6212284;23;20066;-80
2023/04/28 03:20:41;;;;;;;0.20;0.20;;;5.70;99.90;;;;;;6184565;23;20020;-81
2023/04/28 03:23:07;;;;;;;0.20;0.20;;;5.80;99.90;;;;;;6210444;23;20023;-81
2023/04/28 03:25:36;;;;;;;0.20;0.20;;;5.70;99.90;;;;;;6210062;23;20044;-81
2023/04/28 03:28:25;;;;;;;0.20;0.20;;;6.70;99.90;;;;;;6210398;23;20465;-82
2023/04/28 03:30:54;;;;;;;0.20;0.20;;;5.70;99.90;;;;;;6196104;23;20017;-81
2023/04/28 03:33:19;;;;;;;0.20;0.20;;;5.80;99.90;;;;;;6219640;22;20433;-81
2023/04/28 03:35:46;;;;;;;0.20;0.20;;;5.80;99.90;;;;;;6215014;23;20074;-82
2023/04/28 03:38:11;;;;;;;0.20;0.20;;;5.90;99.90;;;;;;6241688;23;20016;-80
2023/04/28 03:43:07;;;;;;;0.20;0.20;;;5.80;99.90;;;;;;6212120;23;20028;-82
2023/04/28 03:48:24;;;;;;;0.20;0.20;;;5.80;99.90;;;;;;6245684;22;20031;-80
2023/04/28 03:51:02;;;;;;;0.20;0.20;;;5.90;99.90;;;;;;6241130;23;20031;-80
2023/04/28 03:53:33;;;;;;;0.17;0.17;;;5.80;99.90;;;;;;6242640;23;20535;-80
2023/04/28 03:56:05;;;;;;;;;;;5.90;99.90;;;;;;6216604;23;20016;-81
2023/04/28 03:58:31;;;;;;;;;;;5.70;99.90;;;;;;6242293;23;19934;-81
2023/04/28 04:00:57;;;;;;;0.20;0.20;;;6.70;99.90;;;;;;6241015;23;19923;-80
2023/04/28 04:03:26;;;;;;;0.10;0.10;;;6.60;99.90;;;;;;6216164;23;20016;-81
2023/04/28 04:05:53;;;;;;;0.20;0.20;;;5.90;99.90;;;;;;6217284;23;20445;-80
2023/04/28 04:12:24;;;;;;;0.20;0.20;;;5.90;99.90;;;;;;6189359;22;20077;-82
2023/04/28 04:15:19;;;;;;;0.20;0.20;;;6.70;99.90;;;;;;6305156;22;20090;-81
2023/04/28 04:18:00;;;;;;;0.20;0.20;;;5.40;99.90;;;;;;6278921;22;20069;-81
2023/04/28 04:20:32;;;;;;;0.20;0.20;;;5.90;99.90;;;;;;6279433;22;20460;-81
2023/04/28 04:23:02;;;;;;;0.13;0.13;;;5.90;99.90;;;;;;6306345;22;20092;-81
2023/04/28 04:25:46;;;;;;;0.20;0.20;;;6.20;99.90;;;;;;6307323;22;20019;-81
2023/04/28 04:37:21;;;;;;;0.20;0.20;;;6.00;99.90;;;;;;6152591;23;20512;-81
2023/04/28 04:39:50;;;;;;;;;;;6.00;99.90;;;;;;6126163;23;20013;-81
2023/04/28 04:42:37;;;;;;;0.20;0.20;;;5.30;99.90;;;;;;6126539;23;19999;-80
2023/04/28 04:45:40;;;;;;;0.17;0.17;;;6.00;99.90;;;;;;6152427;22;20042;-81
2023/04/28 04:48:31;;;;;;;0.20;0.20;;;6.10;99.90;;;;;;6279331;22;20023;-81
2023/04/28 04:51:01;;;;;;;0.20;0.20;;;6.00;99.90;;;;;;6307349;22;20074;-81
2023/04/28 04:53:27;;;;;;;0.20;0.20;;;6.00;99.90;;;;;;6295453;22;20061;-81
2023/04/28 04:55:56;;;;;;;0.20;0.20;;;6.00;99.90;;;;;;6295345;22;20008;-81
2023/04/28 05:01:31;;;;;;;0.10;0.10;;;6.10;99.90;;;;;;6301665;22;20095;-82
2023/04/28 05:03:57;;;;;;;0.15;0.15;;;6.60;99.90;;;;;;6304490;22;20057;-81
2023/04/28 05:09:13;;;;;;;0.20;0.20;;;6.10;99.90;;;;;;6274030;22;20031;-81
2023/04/28 05:11:39;;;;;;;0.20;0.20;;;6.10;99.90;;;;;;6247300;22;20026;-80
2023/04/28 05:14:08;;;;;;;0.10;0.10;;;6.10;99.90;;;;;;6246445;22;20020;-81
2023/04/28 05:20:07;;;;;;;0.20;0.20;;;6.10;99.90;;;;;;6274250;22;20026;-81
2023/04/28 05:22:51;;;;;;;0.20;0.20;;;6.20;99.90;;;;;;6246129;22;20019;-80
2023/04/28 05:25:37;;;;;;;0.20;0.20;;;7.10;99.90;;;;;;6274506;22;20046;-80
2023/04/28 05:28:24;;;;;;;0.20;0.20;;;7.20;99.90;;;;;;6245919;22;20008;-81
2023/04/28 05:30:52;;;;;;;0.20;0.20;;;6.20;99.90;;;;;;6244175;22;20046;-81
2023/04/28 05:33:22;;;;;;;0.10;0.10;;;6.30;99.90;;;;;;6246060;22;20018;-80
2023/04/28 05:38:39;;;;;;;0.65;0.65;;;6.40;99.90;;;;;;6302927;22;20084;-80
2023/04/28 05:41:05;;;;;;;0.20;0.20;;;6.80;99.90;;;;;;6252428;22;20043;-80
2023/04/28 05:43:50;;;;;;;0.20;0.20;;;6.50;99.90;;;;;;6303769;22;20025;-80
2023/04/28 05:46:21;;;;;;;0.20;0.20;;;6.90;99.90;;;;;;6302472;22;20015;-80
2023/04/28 05:52:31;;;;;;;0.20;0.20;;;6.50;99.90;;;;;;6277373;22;20019;-80
2023/04/28 05:55:04;;;;;;;0.20;0.20;;;7.30;99.90;;;;;;6305605;22;20038;-80
2023/04/28 05:57:30;;;;;;;0.20;0.20;;;6.60;99.90;;;;;;6275742;22;20070;-80
2023/04/28 06:05:36;;;;;;;0.20;0.20;;;6.90;99.90;;;;;;6335001;22;20449;-80
2023/04/28 06:08:02;;;;;;;0.20;0.20;;;6.70;99.90;;;;;;6309107;22;20106;-80
2023/04/28 06:10:28;;;;;;;0.17;0.17;;;6.70;99.90;;;;;;6337141;22;20042;-79
2023/04/28 06:13:34;;;;;;;0.20;0.20;;;6.80;99.90;;;;;;6336702;22;20015;-80
2023/04/28 06:23:46;;;;;;;0.10;0.10;;;6.90;99.90;;;;;;6304882;22;20027;-80
2023/04/28 06:26:12;;;;;;;0.13;0.13;;;7.50;99.90;;;;;;6303825;22;20022;-80
2023/04/28 06:32:09;;;;;;;0.20;0.20;;;6.80;99.90;;;;;;6278810;22;20015;-80
2023/04/28 06:34:38;;;;;;;0.10;0.10;;;7.70;99.90;;;;;;6305885;22;20022;-80
2023/04/28 06:37:03;;;;;;;0.20;0.20;;;9.80;99.90;;;;;;6282175;22;20019;-78
2023/04/28 06:39:35;;;;;;;0.20;0.20;;;8.60;99.90;;;;;;6323191;22;20094;-79
2023/04/28 06:42:02;;;;;;;0.20;0.20;;;7.30;99.90;;;;;;6316862;22;20507;-80
2023/04/28 06:45:11;;;;;;;0.10;0.10;;;7.40;99.90;;;;;;6275048;22;20011;-80
2023/04/28 06:47:39;;;;;;;0.10;0.10;;;7.40;99.90;;;;;;6211743;23;20020;-80
2023/04/28 06:50:38;;;;;;;0.20;0.20;;;7.50;99.90;;;;;;6261233;22;20460;-81
2023/04/28 06:59:46;;;;;;;0.13;0.13;;;7.10;99.90;;;;;;6208066;23;20024;-80
2023/04/28 07:02:39;;;;;;;0.10;0.10;;;7.70;99.90;;;;;;6196967;23;20350;-81
2023/04/28 07:05:06;;;;;;;0.20;0.20;;;7.70;99.90;;;;;;6260746;22;20021;-80
2023/04/28 07:07:31;;;;;;;0.20;0.20;;;7.70;99.90;;;;;;6209928;23;20388;-81
2023/04/28 07:09:58;;;;;;;0.20;0.20;;;7.80;99.90;;;;;;6210221;23;20029;-81
2023/04/28 07:12:23;;;;;;;0.20;0.20;;;7.90;99.90;;;;;;6211195;23;20020;-87
2023/04/28 07:15:05;;;;;;;0.20;0.20;;;7.90;99.90;;;;;;6209728;23;20340;-87
2023/04/28 07:17:31;;;;;;;0.17;0.17;;;8.00;99.90;;;;;;6264433;22;20712;-88
2023/04/28 07:19:56;;;;;;;0.20;0.20;;;8.30;99.90;;;;;;6262123;22;20107;-86
2023/04/28 07:22:22;;;;;;;0.20;0.20;;;8.10;99.90;;;;;;6212275;23;20016;-86
2023/04/28 07:24:54;;;;;;;0.20;0.20;;;8.40;99.90;;;;;;6211708;23;20025;-86
2023/04/28 07:27:20;;;;;;;0.20;0.20;;;8.50;99.90;;;;;;6213242;23;20051;-85
2023/04/28 07:30:05;;;;;;;0.10;0.10;;;8.30;99.90;;;;;;6211045;23;20017;-85
2023/04/28 07:32:30;;;;;;;0.10;0.10;;;8.40;99.90;;;;;;6186471;23;20067;-86
2023/04/28 07:35:03;;;;;;;0.20;0.20;;;8.50;99.90;;;;;;6262217;22;20080;-87
2023/04/28 07:37:36;;;;;;;0.20;0.20;;;8.50;99.90;;;;;;6262502;22;20020;-86
2023/04/28 07:40:05;;;;;;;0.13;0.13;;;8.50;99.90;;;;;;6226720;23;20024;-86
2023/04/28 07:42:31;;;;;;;0.10;0.10;;;8.50;99.90;;;;;;6224319;23;20514;-87
2023/04/28 07:44:57;;;;;;;0.10;0.10;;;9.40;99.90;;;;;;6244310;23;20020;-83
2023/04/28 07:47:28;;;;;;;0.17;0.17;;;8.50;99.90;;;;;;6272902;22;20026;-87
2023/04/28 07:49:53;;;;;;;0.10;0.10;;;8.50;99.90;;;;;;6274528;22;20023;-86
2023/04/28 07:52:19;;;;;;;0.10;0.10;;;8.50;99.90;;;;;;6277003;22;20115;-86
2023/04/28 07:54:54;;;;;;;0.20;0.20;;;8.60;99.90;;;;;;6248508;22;20499;-85
2023/04/28 07:57:20;;;;;;;0.20;0.20;;;9.50;99.90;;;;;;6275349;22;20267;-86
2023/04/28 07:59:45;;;;;;;0.20;0.20;;;8.60;99.90;;;;;;6273597;22;20090;-87
2023/04/28 08:02:13;;;;;;;0.10;0.10;;;8.70;99.90;;;;;;6248414;22;20077;-84
2023/04/28 08:04:38;;;;;;;0.10;0.10;;;8.70;99.90;;;;;;6246792;22;20493;-85
2023/04/28 08:07:17;;;;;;;0.10;0.10;;;8.20;99.90;;;;;;6249094;22;20015;-86
2023/04/28 08:09:49;;;;;;;0.20;0.20;;;9.50;99.90;;;;;;6224370;22;20038;-85
2023/04/28 08:12:35;;;;;;;0.20;0.20;;;8.80;99.90;;;;;;6248031;22;20015;-86
2023/04/28 08:15:01;;;;;;;0.20;0.20;;;8.40;99.90;;;;;;6248825;22;20054;-86
2023/04/28 08:17:29;;;;;;;0.10;0.10;;;8.80;99.90;;;;;;6278005;22;20038;-86
2023/04/28 08:20:05;;;;;;;0.20;0.20;;;9.00;99.90;;;;;;6249614;22;20461;-87
2023/04/28 08:22:32;;;;;;;0.10;0.10;;;8.90;99.90;;;;;;6251648;22;20012;-86
2023/04/28 08:24:58;;;;;;;0.10;0.10;;;8.90;99.90;;;;;;6299943;22;20027;-87
2023/04/28 08:27:27;;;;;;;0.10;0.10;;;8.90;99.90;;;;;;6294354;22;20055;-86
2023/04/28 08:29:55;;;;;;;0.10;0.10;;;8.90;99.90;;;;;;6247162;22;20027;-86
2023/04/28 08:32:37;;;;;;;0.10;0.10;;;8.90;99.90;;;;;;6247505;22;20023;-88
2023/04/28 08:35:03;;;;;;;;;;;9.00;99.90;;;;;;6247618;22;20074;-87
2023/04/28 08:37:28;;;;;;;0.20;0.20;;;8.90;99.90;;;;;;6245243;22;19919;-86
2023/04/28 08:40:08;;;;;;;0.20;0.20;;;9.00;99.90;;;;;;6273412;22;20086;-88
2023/04/28 08:42:50;;;;;;;0.15;0.15;;;9.00;99.90;;;;;;6246980;22;20016;-86
2023/04/28 08:45:24;;;;;;;0.20;0.20;;;9.00;99.90;;;;;;6244844;22;20467;-83
2023/04/28 08:47:54;;;;;;;0.10;0.10;;;9.00;99.90;;;;;;6239643;23;20087;-83
2023/04/28 08:50:25;;;;;;;0.10;0.10;;;9.00;99.90;;;;;;6240787;22;20340;-84
2023/04/28 08:52:51;;;;;;;0.10;0.10;;;9.10;99.90;;;;;;6240441;23;20026;-84
2023/04/28 08:55:35;;;;;;;0.17;0.17;;;9.00;99.90;;;;;;6243548;23;20016;-83
2023/04/28 08:58:02;;;;;;;0.20;0.20;;;9.10;99.90;;;;;;6240854;23;20018;-82
2023/04/28 09:00:31;;;;;;;0.10;0.10;;;9.50;99.90;;;;;;6236576;23;20446;-85
2023/04/28 09:03:03;;;;;;;0.15;0.15;;;9.50;99.90;;;;;;6238421;23;20021;-84
2023/04/28 09:05:35;;;;;;;0.10;0.10;;;9.20;99.90;;;;;;6242748;23;20022;-84
2023/04/28 09:08:29;;;;;;;0.17;0.17;;;9.20;99.90;;;;;;6252574;22;20302;-85
2023/04/28 09:11:09;;;;;;;0.10;0.10;;;9.30;99.90;;;;;;6241673;23;20016;-84
2023/04/28 09:13:39;;;;;;;0.20;0.20;;;9.50;99.90;;;;;;6242192;23;20027;-85
2023/04/28 09:16:06;;;;;;;0.10;0.10;;;9.00;99.90;;;;;;6239264;23;20016;-87
2023/04/28 09:18:32;;;;;;;0.10;0.10;;;9.50;99.90;;;;;;6243358;23;20122;-87
2023/04/28 09:21:09;;;;;;;0.10;0.10;;;10.20;99.90;;;;;;6243711;22;20044;-87
2023/04/28 09:23:55;;;;;;;0.10;0.10;;;9.70;99.90;;;;;;6244216;23;20099;-87
2023/04/28 09:26:49;;;;;;;0.10;0.10;;;9.80;99.90;;;;;;6251883;23;20000;-87
2023/04/28 09:29:15;;;;;;;0.20;0.20;;;10.10;99.90;;;;;;6246965;22;20019;-86
2023/04/28 09:31:42;;;;;;;0.17;0.17;;;10.00;99.90;;;;;;6245038;22;20047;-87
2023/04/28 09:34:08;;;;;;;0.10;0.10;;;10.00;99.90;;;;;;6244489;22;20017;-83
2023/04/28 09:36:34;;;;;;;0.10;0.10;;;10.20;99.90;;;;;;6241874;23;20320;-84
2023/04/28 09:39:00;;;;;;;0.10;0.10;;;10.20;99.90;;;;;;6242564;23;20020;-82
2023/04/28 09:41:44;;;;;;;0.20;0.20;;;10.30;99.90;;;;;;6244316;22;20027;-83
2023/04/28 09:44:20;;;;;;;0.20;0.20;;;10.40;99.90;;;;;;6241296;23;20020;-82
2023/04/28 09:46:47;;;;;;;0.10;0.10;;;10.40;99.90;;;;;;6242115;23;20504;-81
2023/04/28 09:49:13;;;;;;;0.20;0.20;;;10.50;99.90;;;;;;6242417;23;20326;-83
2023/04/28 09:51:39;;;;;;;0.10;0.10;;;10.60;99.90;;;;;;6245163;22;20019;-83
2023/04/28 09:54:06;;;;;;;0.10;0.10;;;10.70;99.90;;;;;;6243064;23;20020;-82
2023/04/28 09:56:37;;;;;;;0.20;0.20;;;10.80;99.90;;;;;;6247301;22;20066;-84
2023/04/28 09:59:03;;;;;;;0.10;0.10;;;11.00;99.90;;;;;;6245523;23;20008;-85
2023/04/28 10:01:36;;;;;;;0.15;0.15;;;11.10;99.90;;;;;;6243643;22;20676;-83
2023/04/28 10:04:06;;;;;;;0.20;0.20;;;11.20;99.90;;;;;;6246493;22;20023;-89
2023/04/28 10:06:36;;;;;;;0.10;0.10;;;11.40;99.90;;;;;;6246944;23;20066;-91
2023/04/28 10:09:06;;;;;;;0.15;0.15;;;11.60;99.90;;;;;;6266091;22;20026;-89
2023/04/28 10:11:33;;;;;;;0.10;0.10;;;11.80;99.90;;;;;;6267174;23;20060;-88
2023/04/28 10:13:59;;;;;;;0.10;0.10;;;11.90;99.90;;;;;;6246679;22;20016;-88
2023/04/28 10:16:31;;;;;;;0.10;0.10;;;12.00;99.90;;;;;;6240513;23;20016;-87
2023/04/28 10:18:58;;;;;;;0.20;0.20;;;12.50;99.90;;;;;;6239247;23;20460;-88
2023/04/28 10:21:28;;;;;;;0.17;0.17;;;12.20;99.90;;;;;;6241560;22;20012;-88
2023/04/28 10:24:14;;;;;;;0.10;0.10;;;12.20;99.90;;;;;;6239895;22;20054;-88
2023/04/28 10:26:57;;;;;;;0.20;0.20;;;12.30;99.90;;;;;;6241893;22;20024;-88
2023/04/28 10:29:26;;;;;;;0.10;0.10;;;12.40;99.90;;;;;;6238514;23;20012;-90
2023/04/28 10:32:19;;;;;;;0.10;0.10;;;12.50;99.90;;;;;;6239628;23;20026;-88
2023/04/28 10:34:54;;;;;;;0.10;0.10;;;12.60;99.90;;;;;;6240160;23;20024;-90
2023/04/28 10:38:01;;;;;;;0.20;0.20;;;12.60;99.90;;;;;;6242162;23;20139;-87
2023/04/28 10:40:34;;;;;;;0.45;0.45;;;12.70;99.90;;;;;;6242380;23;20490;-89
2023/04/28 10:43:00;;;;;;;0.15;0.15;;;12.80;99.90;;;;;;6244263;22;20019;-90
2023/04/28 10:45:48;;;;;;;0.25;0.25;;;12.90;99.90;;;;;;6240042;23;20024;-88
2023/04/28 10:48:14;;;;;;;0.20;0.20;;;13.00;99.90;;;;;;6275208;22;20062;-89
2023/04/28 10:51:21;;;;;;;0.10;0.10;;;13.20;99.90;;;;;;6248313;22;20016;-89
2023/04/28 10:53:51;;;;;;;0.10;0.10;;;13.20;99.90;;;;;;6247861;22;20113;-89
2023/04/28 10:56:24;;;;;;;0.20;0.20;;;13.20;99.90;;;;;;6285067;22;20295;-89
2023/04/28 10:58:57;;;;;;;0.13;0.13;;;13.20;99.90;;;;;;6292290;22;20012;-89
2023/04/28 11:01:29;;;;;;;0.15;0.15;;;13.20;99.90;;;;;;6250693;22;20055;-88
2023/04/28 11:03:59;;;;;;;0.10;0.10;;;13.10;99.90;;;;;;6246951;22;20020;-89
2023/04/28 11:06:39;;;;;;;0.10;0.10;;;13.10;99.90;;;;;;6272893;22;20012;-89
2023/04/28 11:09:11;;;;;;;0.20;0.20;;;13.10;99.90;;;;;;6276412;22;20515;-89
2023/04/28 11:11:38;;;;;;;0.17;0.17;;;13.00;99.90;;;;;;6277482;22;20023;-89
2023/04/28 11:14:19;;;;;;;0.10;0.10;;;13.00;99.90;;;;;;6250276;22;20016;-89
2023/04/28 11:16:53;;;;;;;0.10;0.10;;;12.90;99.90;;;;;;6279521;22;20016;-90
2023/04/28 11:19:24;;;;;;;0.13;0.13;;;12.80;99.90;;;;;;6281087;22;20035;-90
2023/04/28 11:21:53;;;;;;;0.20;0.20;;;12.80;99.90;;;;;;6253292;22;20027;-90
2023/04/28 11:24:29;;;;;;;0.20;0.20;;;12.70;99.90;;;;;;6250919;22;20019;-90
2023/04/28 11:26:57;;;;;;;0.10;0.10;;;12.70;99.90;;;;;;6251191;22;20015;-89
2023/04/28 11:29:33;;;;;;;0.10;0.10;;;12.70;99.90;;;;;;6248723;22;20471;-89
2023/04/28 11:31:59;;;;;;;0.20;0.20;;;12.60;99.90;;;;;;6278329;22;20057;-89
2023/04/28 11:34:25;;;;;;;0.20;0.20;;;12.60;99.90;;;;;;6274151;22;20081;-89
2023/04/28 11:36:56;;;;;;;0.17;0.17;;;12.60;99.90;;;;;;6276999;22;20073;-89
2023/04/28 11:39:29;;;;;;;0.15;0.15;;;12.60;99.90;;;;;;6274624;22;20012;-88
2023/04/28 11:41:56;;;;;;;0.10;0.10;;;12.60;99.90;;;;;;6270333;22;20027;-90
2023/04/28 11:44:23;;;;;;;0.20;0.20;;;13.30;99.90;;;;;;6252974;22;20019;-85
2023/04/28 11:47:00;;;;;;;0.10;0.10;;;12.60;99.90;;;;;;6276949;22;20012;-89
2023/04/28 11:49:42;;;;;;;0.10;0.10;;;12.60;99.90;;;;;;6251458;22;20023;-88
2023/04/28 11:52:09;;;;;;;0.20;0.20;;;12.60;99.90;;;;;;6254352;22;20012;-89
2023/04/28 11:54:35;;;;;;;0.10;0.10;;;12.70;99.90;;;;;;6274402;22;20007;-88
2023/04/28 11:57:05;;;;;;;0.10;0.10;;;12.70;99.90;;;;;;6275015;22;20004;-88
2023/04/28 11:59:37;;;;;;;0.20;0.20;;;13.20;99.90;;;;;;6250277;22;20020;-86
2023/04/28 12:02:22;;;;;;;0.10;0.10;;;12.90;99.90;;;;;;6251113;22;20012;-87
2023/04/28 12:05:05;;;;;;;0.17;0.17;;;12.50;99.90;;;;;;6276920;22;20020;-91
2023/04/28 12:07:43;;;;;;;0.10;0.10;;;12.90;99.90;;;;;;6249804;22;20023;-90
2023/04/28 12:10:14;;;;;;;0.17;0.17;;;12.90;99.90;;;;;;6275563;22;20128;-90
2023/04/28 12:12:43;;;;;;;0.10;0.10;;;12.90;99.90;;;;;;6277355;22;20471;-89
2023/04/28 12:15:09;;;;;;;0.10;0.10;;;12.80;99.90;;;;;;6276214;22;20333;-90
2023/04/28 12:17:37;;;;;;;0.10;0.10;;;12.80;99.90;;;;;;6276788;22;20047;-89
2023/04/28 12:20:05;;;;;;;0.20;0.20;;;12.70;99.90;;;;;;6277125;22;20467;-90
2023/04/28 12:22:51;;;;;;;0.17;0.17;;;12.90;99.90;;;;;;6250922;22;20095;-88
2023/04/28 12:25:20;;;;;;;0.20;0.20;;;12.80;99.90;;;;;;6293268;22;20042;-89
2023/04/28 12:28:02;;;;;;;0.20;0.20;;;12.80;99.90;;;;;;6251367;22;20023;-89
2023/04/28 12:30:30;;;;;;;0.10;0.10;;;12.80;99.90;;;;;;6275202;22;20018;-89
2023/04/28 12:32:59;;;;;;;0.10;0.10;;;12.80;99.90;;;;;;6276606;22;20023;-89
2023/04/28 12:35:26;;;;;;;0.10;0.10;;;13.10;99.90;;;;;;6276379;22;20012;-89
2023/04/28 12:37:54;;;;;;;0.10;0.10;;;12.70;99.90;;;;;;6275955;22;20012;-89
2023/04/28 12:40:32;;;;;;;0.20;0.20;;;12.60;99.90;;;;;;6248914;22;20078;-90
2023/04/28 12:42:57;;;;;;;0.20;0.20;;;12.60;99.90;;;;;;6251310;22;20012;-90
2023/04/28 12:45:32;;;;;;;0.10;0.10;;;12.60;99.90;;;;;;6249202;22;20213;-89
2023/04/28 12:47:58;;;;;;;0.15;0.15;;;13.00;99.90;;;;;;6244784;23;20013;-91
2023/04/28 12:50:34;;;;;;;0.17;0.17;;;12.50;99.90;;;;;;6245236;23;20329;-91
2023/04/28 12:52:59;;;;;;;0.10;0.10;;;12.70;99.90;;;;;;6241111;23;20043;-91
2023/04/28 12:55:26;;;;;;;0.13;0.13;;;12.40;99.90;;;;;;6245303;23;20020;-91
2023/04/28 12:57:58;;;;;;;0.10;0.10;;;12.40;99.90;;;;;;6245216;23;20016;-91
2023/04/28 13:00:24;;;;;;;0.10;0.10;;;12.40;99.90;;;;;;6245141;22;20020;-90
2023/04/28 13:02:50;;;;;;;0.10;0.10;;;12.50;99.90;;;;;;6245231;23;20027;-91
2023/04/28 13:05:25;;;;;;;0.20;0.20;;;12.50;99.90;;;;;;6246772;23;20019;-90
2023/04/28 13:07:53;;;;;;;0.15;0.15;;;12.50;99.90;;;;;;6255650;23;20078;-89
2023/04/28 13:10:22;;;;;;;0.10;0.10;;;12.60;99.90;;;;;;6245700;23;20012;-90
2023/04/28 13:12:47;;;;;;;0.20;0.20;;;12.60;99.90;;;;;;6244477;22;20281;-90
2023/04/28 13:15:13;;;;;;;0.10;0.10;;;12.70;99.90;;;;;;6244277;22;20608;-89
2023/04/28 13:17:45;;;;;;;0.10;0.10;;;12.80;99.90;;;;;;6243924;23;20023;-88
2023/04/28 13:20:29;;;;;;;0.13;0.13;;;12.90;99.90;;;;;;6243339;23;20097;-90
2023/04/28 13:23:02;;;;;;;0.20;0.20;;;12.90;99.90;;;;;;6242400;23;20023;-91
2023/04/28 13:25:30;;;;;;;0.10;0.10;;;13.00;99.90;;;;;;6246062;22;20066;-91
2023/04/28 13:27:56;;;;;;;0.10;0.10;;;13.00;99.90;;;;;;6245679;23;20019;-91
2023/04/28 13:30:22;;;;;;;0.20;0.20;;;12.70;99.90;;;;;;6245216;23;20016;-90
2023/04/28 13:32:54;;;;;;;0.40;0.28;;;12.90;99.90;;;;;;6247698;22;20016;-90
2023/04/28 13:35:33;;;;;;;;;;;;;;;;;;;;;
2023/04/28 13:38:06;;;;;;;0.15;0.15;;;12.90;99.90;;;;;;6257286;23;20014;-91
2023/04/28 13:40:33;;;;;;;0.15;0.15;;;12.90;99.90;;;;;;6270796;22;20011;-91
2023/04/28 13:43:08;;;;;;;0.10;0.10;;;13.20;99.90;;;;;;6257308;23;20023;-91
2023/04/28 13:45:52;;;;;;;0.20;0.20;;;12.80;99.90;;;;;;6219319;23;20078;-90
2023/04/28 13:48:18;;;;;;;0.10;0.10;;;12.80;99.90;;;;;;6253069;22;20035;-91
2023/04/28 13:50:44;;;;;;;0.20;0.20;;;12.70;99.90;;;;;;6293834;22;20016;-91
2023/04/28 13:53:10;;;;;;;0.20;0.20;;;12.70;99.90;;;;;;6252375;22;20019;-92
2023/04/28 13:55:39;;;;;;;0.10;0.10;;;12.60;99.90;;;;;;6248815;22;20049;-89
2023/04/28 13:58:05;;;;;;;0.10;0.10;;;12.60;99.90;;;;;;6248229;22;20345;-90
2023/04/28 14:00:32;;;;;;;0.10;0.10;;;12.60;99.90;;;;;;6247526;22;20016;-89
2023/04/28 14:03:10;;;;;;;0.20;0.20;;;12.60;99.90;;;;;;6248137;22;20020;-89
2023/04/28 14:05:43;;;;;;;0.20;0.20;;;12.60;99.90;;;;;;6275533;22;20460;-89
2023/04/28 14:08:09;;;;;;;0.20;0.20;;;12.50;99.90;;;;;;6249006;22;20007;-89
2023/04/28 14:11:02;;;;;;;0.20;0.20;;;12.50;99.90;;;;;;6249564;22;20106;-91
2023/04/28 14:13:28;;;;;;;0.20;0.20;;;12.50;99.90;;;;;;6276399;22;20012;-90
2023/04/28 14:15:54;;;;;;;0.20;0.20;;;12.40;99.90;;;;;;6248258;22;20019;-91
2023/04/28 14:18:43;;;;;;;0.20;0.20;;;12.40;99.90;;;;;;6278773;22;20008;-92
2023/04/28 14:21:11;;;;;;;0.20;0.20;;;12.40;99.90;;;;;;6276268;22;20026;-93
2023/04/28 14:23:38;;;;;;;0.10;0.10;;;12.40;99.90;;;;;;6277341;22;20015;-93
2023/04/28 14:28:32;;;;;;;0.20;0.20;;;12.40;99.90;;;;;;6287744;22;20020;-93
2023/04/28 14:31:21;;;;;;;0.20;0.20;;;12.40;99.90;;;;;;6287549;22;20084;-91
2023/04/28 14:34:07;;;;;;;0.20;0.20;;;12.10;99.90;;;;;;6281894;22;20015;-88
2023/04/28 14:36:33;;;;;;;0.10;0.10;;;12.50;99.90;;;;;;6283114;22;20016;-94
2023/04/28 14:39:05;;;;;;;0.10;0.10;;;12.40;99.90;;;;;;6222177;23;20024;-93
2023/04/28 14:41:31;;;;;;;0.10;0.10;;;12.50;99.90;;;;;;6221689;23;20020;-94
2023/04/28 14:44:14;;;;;;;0.10;0.10;;;13.00;99.90;;;;;;6247241;23;20020;-94
2023/04/28 14:46:45;;;;;;;0.10;0.10;;;12.40;99.90;;;;;;6248891;23;20102;-93
2023/04/28 14:49:11;;;;;;;0.10;0.10;;;12.40;99.90;;;;;;6220792;23;20069;-93